EDT,Max TemperatureF,Mean TemperatureF,Min TemperatureF,Max Dew PointF,MeanDew PointF,Min DewpointF,Max Humidity, Mean Humidity, Min Humidity, Max Sea Level PressureIn, Mean Sea Level PressureIn, Min Sea Level PressureIn, Max VisibilityMiles, Mean VisibilityMiles, Min VisibilityMiles, Max Wind SpeedMPH, Mean Wind SpeedMPH, Max Gust SpeedMPH,PrecipitationIn, CloudCover, Events, WindDirDegrees
2013-8-1,78,72,65,68,62,57,94,74,50,30.00,29.92,29.85,10,9,3,12,5,,0.00,6,Rain,226
2013-8-2,77,67,57,61,56,52,96,73,41,29.99,29.95,29.91,10,10,7,17,4,20,0.00,3,,243
2013-8-3,77,70,63,66,58,50,94,72,41,29.98,29.95,29.92,10,10,7,12,7,18,0.00,5,Rain,254
2013-8-4,73,63,53,55,51,49,94,68,44,30.08,30.02,29.98,10,10,10,12,3,17,0.00,4,,303
2013-8-5,73,62,51,57,53,48,94,74,43,30.15,30.09,30.06,10,10,10,5,1,,0.00,2,,302
2013-8-6,75,65,55,61,57,52,94,82,57,30.10,30.07,30.06,10,10,10,12,1,,0.00,5,,119
2013-8-7,71,66,61,68,63,59,97,91,83,30.09,30.06,30.02,10,8,2,12,2,,0.00,7,Rain-Thunderstorm,217
2013-8-8,80,70,61,72,66,61,100,92,70,30.05,30.02,29.98,10,7,0,12,3,,0.00,4,Fog-Rain,223
2013-8-9,80,74,67,73,69,64,100,88,69,30.00,29.94,29.89,10,8,4,8,4,,0.09,5,Rain,245
2013-8-10,80,70,60,64,59,54,94,74,44,30.13,30.07,30.01,10,10,7,10,2,,0.00,1,,278
2013-8-11,77,68,59,65,60,54,96,81,50,30.17,30.11,30.06,10,10,10,4,0,,0.00,6,,355
2013-8-12,78,68,59,63,62,59,100,82,51,30.09,30.02,29.95,10,9,0,7,2,,0.00,2,Fog,4
2013-8-13,80,70,59,66,60,46,100,80,47,29.94,29.86,29.80,10,7,0,14,3,16,0.00,4,Fog-Rain-Thunderstorm,300
2013-8-14,69,60,52,50,46,43,79,62,38,30.13,30.01,29.94,10,10,10,16,7,18,0.00,4,,295
2013-8-15,78,63,48,72,48,43,93,73,35,30.23,30.16,30.00,10,10,7,12,1,,0.00,3,,214
2013-8-16,75,62,49,54,50,46,100,72,36,30.22,30.19,30.16,10,10,10,4,0,,0.00,3,,300
2013-8-17,77,64,51,56,53,50,100,75,41,30.33,30.27,30.23,10,10,5,12,1,,0.00,1,,68
2013-8-18,71,64,58,59,56,54,96,80,56,30.30,30.24,30.19,10,10,10,7,1,,0.00,2,,233
2013-8-19,75,67,59,66,61,56,96,87,65,30.20,30.14,30.09,10,9,3,6,1,,0.00,5,Rain,213
2013-8-20,82,70,59,65,60,52,100,78,35,30.22,30.16,30.12,10,7,1,7,3,,0.00,2,,248
2013-8-21,84,70,57,65,61,57,100,78,42,30.25,30.18,30.09,10,8,1,7,1,,0.00,2,,228
2013-8-22,84,74,64,67,65,57,95,81,45,30.11,30.06,29.97,10,8,5,17,3,16,0.00,3,Rain,246
2013-8-23,78,70,63,66,60,52,100,79,39,30.20,30.08,30.01,10,8,3,9,1,,0.00,3,,26
2013-8-24,78,66,53,55,52,45,95,69,30,30.37,30.28,30.02,10,10,10,6,3,,0.00,1,,32
2013-8-25,80,66,52,59,54,51,95,72,39,30.59,30.34,30.26,10,10,10,8,1,,0.00,1,,222
2013-8-26,86,73,60,66,60,57,90,70,40,30.27,30.15,30.02,10,10,10,17,5,20,0.00,3,Rain,235
2013-8-27,86,78,69,71,66,63,96,75,45,30.02,29.98,29.91,10,8,3,12,4,,0.02,4,Rain,262
2013-8-28,80,74,68,72,70,68,100,93,65,29.97,29.92,29.85,7,4,0,17,3,,0.03,7,Fog-Rain,213
2013-8-29,84,76,68,69,66,59,100,83,42,30.08,30.01,29.94,10,7,0,6,2,,0.00,5,Fog,20
2013-8-30,86,74,62,70,65,61,100,81,43,30.05,29.98,29.87,10,7,0,12,2,,0.00,2,Fog,225
2013-8-31,86,77,68,70,66,61,94,77,43,29.89,29.86,29.80,10,9,7,13,4,17,0.00,2,Rain-Thunderstorm,242